Time;durP1;ratioP1;P1;durP2;ratioP2;P2;SDS_P1;SDS_P2;PMS_P1;PMS_P2;Temp;Humidity;BMP_temperature;BMP_pressure;BME280_temperature;BME280_humidity;BME280_pressure;Samples;Min_cycle;Max_cycle;Signal;HPM_P1;HPM_P2
2023/08/22 00:00:58;;;;;;;;;;;;;;;;;;5839453;28;19921;-73
2023/08/22 00:03:56;;;;;;;;;;;;;;;;;;5850440;28;19976;-74
2023/08/22 00:06:47;;;;;;;;;;;;;;;;;;5840158;28;19921;-74
2023/08/22 00:09:51;;;;;;;;;;;;;;;;;;5839877;28;20432;-74
2023/08/22 00:12:41;;;;;;;;;;;;;;;;;;5839307;28;19921;-75
2023/08/22 00:15:39;;;;;;;;;;;;;;;;;;5839168;28;20016;-72
2023/08/22 00:18:31;;;;;;;;;;;;;;;;;;5839035;28;20012;-74
2023/08/22 00:21:30;;;;;;;;;;;;;;;;;;5839139;28;20366;-73
2023/08/22 00:24:21;;;;;;;;;;;;;;;;;;5839601;28;19965;-74
2023/08/22 00:27:18;;;;;;;;;;;;;;;;;;5838928;28;19928;-74
2023/08/22 00:30:09;;;;;;;;;;;;;;;;;;5839096;28;19970;-73
2023/08/22 00:33:06;;;;;;;;;;;;;;;;;;5822240;28;19921;-75
2023/08/22 00:35:57;;;;;;;;;;;;;;;;;;5838882;28;19972;-75
2023/08/22 00:38:54;;;;;;;;;;;;;;;;;;5839165;28;20300;-74
2023/08/22 00:41:45;;;;;;;;;;;;;;;;;;5839210;28;19929;-75
2023/08/22 00:44:42;;;;;;;;;;;;;;;;;;5839125;28;19929;-74
2023/08/22 00:47:33;;;;;;;;;;;;;;;;;;5838456;28;19928;-73
2023/08/22 00:50:31;;;;;;;;;;;;;;;;;;5838529;28;19921;-73
2023/08/22 00:53:22;;;;;;;;;;;;;;;;;;5821430;28;19921;-74
2023/08/22 00:56:19;;;;;;;;;;;;;;;;;;5838991;28;19922;-75
2023/08/22 00:59:10;;;;;;;;;;;;;;;;;;5838396;28;19958;-75
2023/08/22 01:02:08;;;;;;;;;;;;;;;;;;5822076;28;20257;-74
2023/08/22 01:04:58;;;;;;;;;;;;;;;;;;5838089;28;19921;-74
2023/08/22 01:08:07;;;;;;;;;;;;;;;;;;5838222;28;19928;-75
2023/08/22 01:11:05;;;;;;;;;;;;;;;;;;5821873;28;19929;-73
2023/08/22 01:14:07;;;;;;;;;;;;;;;;;;5822795;28;20655;-74
2023/08/22 01:16:58;;;;;;;;;;;;;;;;;;5805040;28;20237;-74
2023/08/22 01:19:56;;;;;;;;;;;;;;;;;;5821636;28;19921;-75
2023/08/22 01:22:47;;;;;;;;;;;;;;;;;;5837881;28;19922;-73
2023/08/22 01:25:44;;;;;;;;;;;;;;;;;;5838375;28;19936;-74
2023/08/22 01:28:39;;;;;;;;;;;;;;;;;;5837800;28;19957;-75
2023/08/22 01:31:59;;;;;;;;;;;;;;;;;;5821451;28;19921;-73
2023/08/22 01:34:52;;;;;;;;;;;;;;;;;;5837447;28;20371;-75
2023/08/22 01:37:51;;;;;;;;;;;;;;;;;;5837980;28;20020;-75
2023/08/22 01:40:42;;;;;;;;;;;;;;;;;;5820790;28;20385;-72
2023/08/22 01:43:42;;;;;;;;;;;;;;;;;;5821140;28;19989;-75
2023/08/22 01:46:33;;;;;;;;;;;;;;;;;;5819669;28;19922;-72
2023/08/22 01:49:31;;;;;;;;;;;;;;;;;;5821116;28;19922;-75
2023/08/22 01:52:22;;;;;;;;;;;;;;;;;;5819738;28;19928;-75
2023/08/22 01:55:19;;;;;;;;;;;;;;;;;;5820679;28;19984;-75
2023/08/22 01:58:11;;;;;;;;;;;;;;;;;;5837289;28;19937;-74
2023/08/22 02:01:12;;;;;;;;;;;;;;;;;;5836897;28;19921;-75
2023/08/22 02:04:03;;;;;;;;;;;;;;;;;;5837274;28;19929;-73
2023/08/22 02:07:01;;;;;;;;;;;;;;;;;;5837081;28;20013;-75
2023/08/22 02:09:52;;;;;;;;;;;;;;;;;;5837378;28;19921;-74
2023/08/22 02:12:49;;;;;;;;;;;;;;;;;;5836891;28;20061;-76
2023/08/22 02:15:40;;;;;;;;;;;;;;;;;;5837302;28;20546;-74
2023/08/22 02:18:37;;;;;;;;;;;;;;;;;;5836962;28;20559;-73
2023/08/22 02:21:28;;;;;;;;;;;;;;;;;;5819242;28;19921;-75
2023/08/22 02:24:26;;;;;;;;;;;;;;;;;;5836709;28;20052;-74
2023/08/22 02:27:16;;;;;;;;;;;;;;;;;;5836511;28;19922;-74
2023/08/22 02:30:13;;;;;;;;;;;;;;;;;;5819543;28;19921;-72
2023/08/22 02:33:04;;;;;;;;;;;;;;;;;;5836417;28;20065;-73
2023/08/22 02:36:01;;;;;;;;;;;;;;;;;;5836408;28;19921;-75
2023/08/22 02:38:52;;;;;;;;;;;;;;;;;;5836681;28;20340;-74
2023/08/22 02:41:49;;;;;;;;;;;;;;;;;;5836129;28;19921;-76
2023/08/22 02:44:40;;;;;;;;;;;;;;;;;;5836226;28;19938;-75
2023/08/22 02:47:37;;;;;;;;;;;;;;;;;;5836050;28;20462;-72
2023/08/22 02:50:28;;;;;;;;;;;;;;;;;;5818555;28;19996;-73
2023/08/22 02:53:25;;;;;;;;;;;;;;;;;;5836414;28;19928;-74
2023/08/22 02:56:16;;;;;;;;;;;;;;;;;;5802837;28;19925;-75
2023/08/22 02:59:13;;;;;;;;;;;;;;;;;;5836611;28;20023;-74
2023/08/22 03:02:04;;;;;;;;;;;;;;;;;;5836626;28;19932;-72
2023/08/22 03:05:01;;;;;;;;;;;;;;;;;;5836490;28;19928;-73
2023/08/22 03:07:52;;;;;;;;;;;;;;;;;;5836197;28;20004;-75
2023/08/22 03:10:49;;;;;;;;;;;;;;;;;;5836294;28;20296;-74
2023/08/22 03:13:40;;;;;;;;;;;;;;;;;;5818767;28;19921;-75
2023/08/22 03:16:37;;;;;;;;;;;;;;;;;;5836072;28;19928;-72
2023/08/22 03:19:28;;;;;;;;;;;;;;;;;;5818605;28;20369;-75
2023/08/22 03:22:32;;;;;;;;;;;;;;;;;;5835976;28;20289;-74
2023/08/22 03:25:22;;;;;;;;;;;;;;;;;;5836478;28;19928;-74
2023/08/22 03:28:19;;;;;;;;;;;;;;;;;;5836190;28;19921;-75
2023/08/22 03:31:10;;;;;;;;;;;;;;;;;;5835950;28;19925;-75
2023/08/22 03:34:07;;;;;;;;;;;;;;;;;;5836146;28;19922;-74
2023/08/22 03:36:58;;;;;;;;;;;;;;;;;;5835385;28;19926;-72
2023/08/22 03:39:55;;;;;;;;;;;;;;;;;;5836455;28;19921;-74
2023/08/22 03:42:46;;;;;;;;;;;;;;;;;;5836035;28;19925;-74
2023/08/22 03:45:44;;;;;;;;;;;;;;;;;;5835661;28;19921;-72
2023/08/22 03:48:41;;;;;;;;;;;;;;;;;;5818426;28;19926;-75
2023/08/22 03:51:38;;;;;;;;;;;;;;;;;;5835450;28;19933;-74
2023/08/22 03:54:29;;;;;;;;;;;;;;;;;;5839576;28;20015;-72
2023/08/22 03:57:26;;;;;;;;;;;;;;;;;;5839215;28;19941;-75
2023/08/22 04:00:17;;;;;;;;;;;;;;;;;;5840126;28;20395;-73
2023/08/22 04:03:14;;;;;;;;;;;;;;;;;;5839260;28;19925;-74
2023/08/22 04:06:08;;;;;;;;;;;;;;;;;;5840074;28;20031;-74
2023/08/22 04:09:05;;;;;;;;;;;;;;;;;;5822701;28;19921;-74
2023/08/22 04:11:58;;;;;;;;;;;;;;;;;;5838864;28;19928;-75
2023/08/22 04:14:55;;;;;;;;;;;;;;;;;;5823515;28;19921;-75
2023/08/22 04:17:46;;;;;;;;;;;;;;;;;;5839240;28;19925;-74
2023/08/22 04:20:43;;;;;;;;;;;;;;;;;;5844857;28;20229;-76
2023/08/22 04:23:36;;;;;;;;;;;;;;;;;;5861600;28;20020;-75
2023/08/22 04:26:34;;;;;;;;;;;;;;;;;;5860630;28;20003;-75
2023/08/22 04:29:25;;;;;;;;;;;;;;;;;;5858676;28;19928;-75
2023/08/22 04:32:22;;;;;;;;;;;;;;;;;;5850426;28;19928;-75
2023/08/22 04:38:03;;;;;;;2.88;2.58;;;;;;;;;;5889714;27;20419;-74
2023/08/22 04:41:00;;;;;;;2.13;1.55;;;;;;;;;;5874792;28;20044;-76
2023/08/22 04:43:51;;;;;;;2.42;1.10;;;;;;;;;;5864650;28;20033;-75
2023/08/22 04:46:48;;;;;;;1.73;1.42;;;;;;;;;;5867994;28;20049;-75
2023/08/22 04:49:39;;;;;;;33.75;2.42;;;;;;;;;;5883231;28;20429;-74
2023/08/22 04:52:36;;;;;;;3.10;1.42;;;;;;;;;;5880387;28;20044;-75
2023/08/22 04:55:27;;;;;;;2.00;1.63;;;;;;;;;;5902090;28;20041;-73
2023/08/22 04:58:24;;;;;;;1.60;1.50;;;;;;;;;;5861405;28;20049;-75
2023/08/22 05:01:21;;;;;;;3.75;1.80;;;;;;;;;;5866370;28;20484;-74
2023/08/22 05:04:18;;;;;;;1.48;1.27;;;;;;;;;;5870069;28;20136;-75
2023/08/22 05:07:09;;;;;;;5.90;2.65;;;;;;;;;;5867551;28;20587;-75
2023/08/22 05:10:07;;;;;;;2.95;2.15;;;;;;;;;;5874949;28;20053;-75
2023/08/22 05:12:58;;;;;;;2.50;1.42;;;;;;;;;;5879385;28;20037;-74
2023/08/22 05:15:55;;;;;;;1.67;1.40;;;;;;;;;;5882417;28;20041;-75
2023/08/22 05:18:46;;;;;;;4.80;2.58;;;;;;;;;;5869188;28;20052;-74
2023/08/22 05:21:43;;;;;;;2.38;2.15;;;;;;;;;;5870114;28;20044;-75
2023/08/22 05:24:34;;;;;;;2.70;1.92;;;;;;;;;;5870340;28;20037;-77
2023/08/22 05:27:31;;;;;;;1.52;1.38;;;;;;;;;;5867437;28;20186;-75
2023/08/22 05:30:22;;;;;;;2.35;1.83;;;;;;;;;;5871555;28;20077;-74
2023/08/22 05:33:19;;;;;;;2.58;1.70;;;;;;;;;;5867577;28;20045;-75
2023/08/22 05:36:10;;;;;;;5.05;2.03;;;;;;;;;;5881935;28;20045;-75
2023/08/22 05:39:07;;;;;;;2.85;2.20;;;;;;;;;;5881806;28;20049;-76
2023/08/22 05:41:58;;;;;;;2.50;2.08;;;;;;;;;;5883438;28;20048;-75
2023/08/22 05:44:55;;;;;;;1.65;1.33;;;;;;;;;;5905002;28;20043;-76
2023/08/22 05:47:46;;;;;;;2.38;1.70;;;;;;;;;;5897556;28;20052;-75
2023/08/22 05:50:43;;;;;;;5.35;2.20;;;;;;;;;;5890648;28;20110;-74
2023/08/22 05:53:34;;;;;;;1.75;1.65;;;;;;;;;;5890512;28;20041;-76
2023/08/22 05:56:31;;;;;;;3.38;2.03;;;;;;;;;;5890385;28;20048;-75
2023/08/22 05:59:23;;;;;;;2.20;1.17;;;;;;;;;;5890409;28;20492;-75
2023/08/22 06:02:20;;;;;;;1.83;1.35;;;;;;;;;;5889022;28;20396;-77
2023/08/22 06:05:11;;;;;;;2.17;1.67;;;;;;;;;;5890230;28;20443;-76
2023/08/22 06:08:08;;;;;;;6.15;1.77;;;;;;;;;;5904545;28;20049;-76
2023/08/22 06:11:05;;;;;;;2.85;1.95;;;;;;;;;;5890295;28;20049;-74
2023/08/22 06:13:56;;;;;;;3.50;1.60;;;;;;;;;;5889444;28;20037;-76
2023/08/22 06:16:53;;;;;;;1.63;1.30;;;;;;;;;;5890197;28;20044;-76
2023/08/22 06:19:48;;;;;;;2.55;1.83;;;;;;;;;;5889022;28;20051;-76
2023/08/22 06:22:45;;;;;;;2.10;1.77;;;;;;;;;;5888761;28;20142;-77
2023/08/22 06:25:36;;;;;;;1.48;1.27;;;;;;;;;;5889793;28;20049;-76
2023/08/22 06:28:34;;;;;;;1.67;1.00;;;;;;;;;;5889645;28;20047;-74
2023/08/22 06:31:25;;;;;;;3.35;1.10;;;;;;;;;;5889849;28;20494;-76
2023/08/22 06:34:22;;;;;;;1.92;0.80;;;;;;;;;;5889829;28;20140;-76
2023/08/22 06:37:13;;;;;;;2.28;0.93;;;;;;;;;;5888995;28;20076;-75
2023/08/22 06:40:11;;;;;;;5.25;0.90;;;;;;;;;;5889752;28;20049;-76
2023/08/22 06:43:03;;;;;;;0.88;0.73;;;;;;;;;;5889615;28;20041;-76
2023/08/22 06:46:00;;;;;;;2.72;1.05;;;;;;;;;;5888783;28;20140;-74
2023/08/22 06:48:51;;;;;;;0.80;0.80;;;;;;;;;;5889852;28;20044;-75
2023/08/22 06:51:48;;;;;;;4.22;1.00;;;;;;;;;;5889391;28;20049;-74
2023/08/22 06:54:43;;;;;;;1.27;0.88;;;;;;;;;;5903989;28;20037;-73
2023/08/22 06:57:40;;;;;;;0.57;0.52;;;;;;;;;;5889226;28;20056;-74
2023/08/22 07:00:31;;;;;;;1.33;0.98;;;;;;;;;;5888106;28;20049;-73
2023/08/22 07:03:29;;;;;;;;;;;;;;;;;;5889596;28;20476;-73
2023/08/22 07:06:20;;;;;;;1.50;0.63;;;;;;;;;;5888936;28;19921;-74
2023/08/22 07:09:17;;;;;;;1.35;0.65;;;;;;;;;;5888923;28;20053;-73
2023/08/22 07:12:08;;;;;;;1.58;0.60;;;;;;;;;;5888675;28;20183;-75
2023/08/22 07:15:06;;;;;;;1.70;0.40;;;;;;;;;;5888774;28;20403;-74
2023/08/22 07:17:57;;;;;;;1.52;0.75;;;;;;;;;;5889154;28;20040;-75
2023/08/22 07:20:54;;;;;;;3.42;0.88;;;;;;;;;;5889015;28;20392;-74
2023/08/22 07:23:45;;;;;;;0.35;0.35;;;;;;;;;;5887211;28;20072;-73
2023/08/22 07:26:42;;;;;;;0.63;0.50;;;;;;;;;;5888654;28;20124;-75
2023/08/22 07:29:33;;;;;;;2.30;0.57;;;;;;;;;;5887638;28;20033;-74
2023/08/22 07:32:30;;;;;;;1.10;0.80;;;;;;;;;;5888565;28;20128;-73
2023/08/22 07:35:24;;;;;;;0.75;0.45;;;;;;;;;;5888347;28;20055;-74
2023/08/22 07:38:21;;;;;;;1.05;0.50;;;;;;;;;;5888360;28;20060;-75
2023/08/22 07:41:12;;;;;;;0.50;0.32;;;;;;;;;;5888188;28;20045;-73
2023/08/22 07:44:09;;;;;;;1.15;0.93;;;;;;;;;;5888244;28;20465;-73
2023/08/22 07:47:00;;;;;;;0.63;0.32;;;;;;;;;;5887278;28;20051;-75
2023/08/22 07:49:57;;;;;;;0.73;0.70;;;;;;;;;;5888214;28;20045;-73
2023/08/22 07:52:48;;;;;;;0.95;0.50;;;;;;;;;;5888054;28;20124;-73
2023/08/22 07:55:48;;;;;;;;;;;;;;;;;;5888300;28;20352;-74
2023/08/22 07:58:39;;;;;;;2.00;1.45;;;;;;;;;;5887845;28;19927;-73
2023/08/22 08:01:36;;;;;;;1.23;0.70;;;;;;;;;;5887858;28;20047;-75
2023/08/22 08:04:27;;;;;;;3.95;1.42;;;;;;;;;;5886421;28;20040;-73
2023/08/22 08:07:24;;;;;;;;;;;;;;;;;;5887915;28;20041;-72
2023/08/22 08:10:15;;;;;;;2.55;1.50;;;;;;;;;;5887548;28;19920;-75
2023/08/22 08:13:13;;;;;;;;;;;;;;;;;;5887894;28;20048;-75
2023/08/22 08:16:04;;;;;;;3.13;1.20;;;;;;;;;;5887426;28;19932;-74
2023/08/22 08:19:01;;;;;;;2.30;1.42;;;;;;;;;;5887636;28;20045;-74
2023/08/22 08:21:52;;;;;;;2.15;1.67;;;;;;;;;;5887295;28;20049;-74
2023/08/22 08:24:49;;;;;;;3.17;1.02;;;;;;;;;;5887150;28;20040;-73
2023/08/22 08:27:40;;;;;;;3.65;2.08;;;;;;;;;;5887295;28;20045;-73
2023/08/22 08:30:40;;;;;;;5.07;2.47;;;;;;;;;;5887235;28;20051;-75
2023/08/22 08:33:32;;;;;;;1.05;0.90;;;;;;;;;;5887230;28;20045;-74
2023/08/22 08:36:29;;;;;;;2.35;1.08;;;;;;;;;;5886820;28;20095;-73
2023/08/22 08:39:20;;;;;;;2.67;1.17;;;;;;;;;;5887203;28;20648;-73
2023/08/22 08:42:17;;;;;;;;;;;;;;;;;;5887534;28;20072;-73
2023/08/22 08:45:08;;;;;;;4.38;1.63;;;;;;;;;;5886779;28;20438;-75
2023/08/22 08:48:06;;;;;;;;;;;;;;;;;;5887034;28;20045;-76
2023/08/22 08:51:03;;;;;;;1.88;1.02;;;;;;;;;;5887555;28;20319;-73
2023/08/22 08:54:00;;;;;;;2.90;1.42;;;;;;;;;;5885945;28;20493;-74
2023/08/22 08:56:52;;;;;;;1.65;1.23;;;;;;;;;;5885710;28;20112;-75
2023/08/22 08:59:49;;;;;;;3.60;1.08;;;;;;;;;;5885665;28;20063;-74
2023/08/22 09:02:40;;;;;;;2.03;1.15;;;;;;;;;;5886938;28;20044;-74
2023/08/22 09:05:37;;;;;;;2.22;1.20;;;;;;;;;;5887156;28;20052;-75
2023/08/22 09:08:28;;;;;;;1.38;0.98;;;;;;;;;;5886829;28;20167;-76
2023/08/22 09:11:26;;;;;;;1.85;0.93;;;;;;;;;;5886869;28;20045;-73
2023/08/22 09:14:21;;;;;;;1.67;0.85;;;;;;;;;;5886688;28;20053;-74
2023/08/22 09:17:18;;;;;;;1.13;0.65;;;;;;;;;;5885212;28;20053;-74
2023/08/22 09:20:10;;;;;;;0.88;0.82;;;;;;;;;;5886453;28;20048;-75
2023/08/22 09:23:19;;;;;;;2.90;0.70;;;;;;;;;;5888476;28;20055;-75
2023/08/22 09:26:11;;;;;;;0.82;0.68;;;;;;;;;;5889621;28;20266;-74
2023/08/22 09:29:08;;;;;;;1.65;0.95;;;;;;;;;;5891037;28;20530;-74
2023/08/22 09:32:06;;;;;;;1.70;0.68;;;;;;;;;;5890973;28;20039;-73
2023/08/22 09:35:00;;;;;;;2.33;1.20;;;;;;;;;;5889845;28;20082;-74
2023/08/22 09:38:07;;;;;;;1.13;0.80;;;;;;;;;;5891023;28;20476;-75
2023/08/22 09:40:58;;;;;;;3.35;1.33;;;;;;;;;;5889684;28;20060;-74
2023/08/22 09:43:58;;;;;;;0.77;0.75;;;;;;;;;;5891024;28;20507;-74
2023/08/22 09:46:51;;;;;;;4.15;1.15;;;;;;;;;;5889438;28;20551;-73
2023/08/22 09:49:53;;;;;;;0.70;0.47;;;;;;;;;;5889268;28;20365;-75
2023/08/22 09:52:45;;;;;;;0.88;0.57;;;;;;;;;;5890392;28;20441;-73
2023/08/22 09:55:44;;;;;;;0.40;0.30;;;;;;;;;;5890410;28;20119;-74
2023/08/22 09:58:35;;;;;;;2.28;1.17;;;;;;;;;;5888976;28;20113;-75
2023/08/22 10:01:38;;;;;;;2.17;1.02;;;;;;;;;;5888923;28;20120;-74
2023/08/22 10:04:30;;;;;;;2.38;1.27;;;;;;;;;;5889068;28;20364;-75
2023/08/22 10:07:28;;;;;;;2.72;0.80;;;;;;;;;;5873283;28;20137;-72
2023/08/22 10:10:19;;;;;;;1.40;0.88;;;;;;;;;;5890017;28;20064;-75
2023/08/22 10:13:17;;;;;;;1.52;1.15;;;;;;;;;;5888828;28;20051;-73
2023/08/22 10:16:08;;;;;;;2.33;1.02;;;;;;;;;;5888433;28;20183;-72
2023/08/22 10:19:08;;;;;;;2.08;0.82;;;;;;;;;;5888691;28;20041;-74
2023/08/22 10:22:07;;;;;;;0.98;0.80;;;;;;;;;;5890255;28;20048;-73
2023/08/22 10:25:06;;;;;;;2.03;1.05;;;;;;;;;;5888273;28;20384;-72
2023/08/22 10:28:03;;;;;;;0.70;0.70;;;;;;;;;;5890085;28;20041;-72
2023/08/22 10:31:03;;;;;;;1.02;0.60;;;;;;;;;;5888425;28;20096;-74
2023/08/22 10:34:00;;;;;;;1.30;0.90;;;;;;;;;;5888369;28;20041;-75
2023/08/22 10:37:01;;;;;;;3.17;1.35;;;;;;;;;;5889480;28;20041;-72
2023/08/22 10:39:52;;;;;;;5.88;1.10;;;;;;;;;;5888526;28;20033;-73
2023/08/22 10:43:11;;;;;;;2.65;1.00;;;;;;;;;;5889141;28;20040;-73
2023/08/22 10:46:01;;;;;;;1.00;0.80;;;;;;;;;;5860250;28;20046;-74
2023/08/22 10:49:03;;;;;;;3.47;1.00;;;;;;;;;;5858306;28;20041;-72
2023/08/22 10:52:18;;;;;;;0.95;0.35;;;;;;;;;;5867445;28;20044;-74
2023/08/22 10:55:19;;;;;;;3.20;1.17;;;;;;;;;;5863907;28;20037;-74
2023/08/22 10:58:39;;;;;;;1.95;1.02;;;;;;;;;;5863043;28;20491;-74
2023/08/22 11:01:37;;;;;;;0.95;0.68;;;;;;;;;;5842008;28;20060;-73
2023/08/22 11:04:29;;;;;;;1.70;1.25;;;;;;;;;;5840676;28;20500;-73
2023/08/22 11:07:30;;;;;;;0.80;0.50;;;;;;;;;;5841362;28;20049;-74
2023/08/22 11:10:23;;;;;;;4.50;1.15;;;;;;;;;;5840146;28;20053;-72
2023/08/22 11:13:35;;;;;;;1.13;0.60;;;;;;;;;;5841612;28;20054;-75
2023/08/22 11:16:26;;;;;;;5.70;1.15;;;;;;;;;;5851083;28;20484;-73
2023/08/22 11:19:23;;;;;;;1.50;0.82;;;;;;;;;;5870912;28;20397;-75
2023/08/22 11:22:15;;;;;;;1.10;0.70;;;;;;;;;;5882217;28;20049;-72
2023/08/22 11:25:13;;;;;;;1.90;1.13;;;;;;;;;;5868445;28;20444;-73
2023/08/22 11:28:10;;;;;;;0.50;0.50;;;;;;;;;;5887048;28;20135;-73
2023/08/22 11:31:04;;;;;;;0.80;0.60;;;;;;;;;;5887882;28;20045;-73
2023/08/22 11:34:03;;;;;;;1.02;0.82;;;;;;;;;;5879426;28;20068;-73
2023/08/22 11:36:54;;;;;;;0.93;0.70;;;;;;;;;;5846468;28;20080;-73
2023/08/22 11:39:52;;;;;;;;;;;;;;;;;;5865080;28;20394;-72
2023/08/22 11:42:46;;;;;;;2.67;0.75;;;;;;;;;;5864066;28;19924;-74
2023/08/22 11:45:46;;;;;;;5.43;1.38;;;;;;;;;;5842353;28;20464;-74
2023/08/22 11:48:37;;;;;;;0.68;0.43;;;;;;;;;;5839693;28;20153;-73
2023/08/22 11:51:34;;;;;;;0.77;0.57;;;;;;;;;;5839607;28;20080;-72
2023/08/22 11:54:25;;;;;;;3.47;1.05;;;;;;;;;;5841069;28;20045;-74
2023/08/22 11:57:25;;;;;;;;;;;;;;;;;;5837817;28;20042;-73
2023/08/22 12:00:16;;;;;;;3.28;0.93;;;;;;;;;;5859856;28;19921;-73
2023/08/22 12:03:14;;;;;;;1.67;0.93;;;;;;;;;;5840609;28;20046;-73
2023/08/22 12:06:13;;;;;;;3.75;0.80;;;;;;;;;;5838811;28;20129;-73
2023/08/22 12:09:12;;;;;;;1.08;0.65;;;;;;;;;;5839539;28;20053;-74
2023/08/22 12:12:14;;;;;;;2.22;0.70;;;;;;;;;;5840640;28;20358;-73
2023/08/22 12:15:11;;;;;;;1.17;0.82;;;;;;;;;;5837349;28;20054;-73
2023/08/22 12:18:04;;;;;;;0.90;0.57;;;;;;;;;;5839664;28;20409;-74
2023/08/22 12:21:02;;;;;;;1.02;0.60;;;;;;;;;;5838928;28;20046;-75
2023/08/22 12:23:59;;;;;;;2.53;0.55;;;;;;;;;;5840208;28;20397;-73
2023/08/22 12:26:50;;;;;;;1.20;0.52;;;;;;;;;;5848125;28;20599;-74
2023/08/22 12:29:47;;;;;;;2.42;0.98;;;;;;;;;;5840512;28;20057;-73
2023/08/22 12:32:38;;;;;;;1.40;0.70;;;;;;;;;;5838919;28;20497;-72
2023/08/22 12:35:38;;;;;;;1.55;1.08;;;;;;;;;;5839081;28;20422;-74
2023/08/22 12:38:29;;;;;;;1.52;0.98;;;;;;;;;;5840418;28;20057;-73
2023/08/22 12:41:26;;;;;;;1.58;0.82;;;;;;;;;;5840183;28;20046;-72
2023/08/22 12:44:17;;;;;;;2.63;1.02;;;;;;;;;;5840357;28;20053;-72
2023/08/22 12:47:14;;;;;;;0.85;0.73;;;;;;;;;;5839765;28;20042;-72
2023/08/22 12:50:06;;;;;;;1.15;0.70;;;;;;;;;;5840267;28;20049;-72
2023/08/22 12:53:08;;;;;;;4.43;1.30;;;;;;;;;;5839291;28;20042;-74
2023/08/22 12:55:59;;;;;;;1.90;0.97;;;;;;;;;;5840648;28;20053;-73
2023/08/22 12:58:57;;;;;;;1.20;1.10;;;;;;;;;;5844172;28;20049;-73
2023/08/22 13:01:48;;;;;;;1.80;0.77;;;;;;;;;;5858998;28;20045;-74
2023/08/22 13:04:45;;;;;;;2.53;1.05;;;;;;;;;;5867680;28;20096;-73
2023/08/22 13:07:36;;;;;;;4.53;1.17;;;;;;;;;;5849217;28;20065;-73
2023/08/22 13:10:35;;;;;;;1.17;0.80;;;;;;;;;;5844284;28;20053;-73
2023/08/22 13:13:25;;;;;;;1.67;1.08;;;;;;;;;;5844426;28;20552;-72
2023/08/22 13:16:23;;;;;;;3.65;1.20;;;;;;;;;;5844879;28;20042;-72
2023/08/22 13:19:14;;;;;;;1.58;0.80;;;;;;;;;;5844041;28;20442;-73
2023/08/22 13:22:11;;;;;;;2.53;1.73;;;;;;;;;;5841013;28;20401;-73
2023/08/22 13:25:02;;;;;;;2.20;1.13;;;;;;;;;;5843803;28;20042;-71
2023/08/22 13:27:59;;;;;;;2.40;1.33;;;;;;;;;;5844059;28;20050;-73
2023/08/22 13:30:50;;;;;;;0.80;0.60;;;;;;;;;;5843667;28;20042;-72
2023/08/22 13:33:47;;;;;;;6.20;1.25;;;;;;;;;;5843749;28;20056;-74
2023/08/22 13:36:38;;;;;;;1.92;1.15;;;;;;;;;;5843232;28;20385;-73
2023/08/22 13:39:35;;;;;;;;;;;;;;;;;;5836022;28;20056;-72
2023/08/22 13:42:26;;;;;;;1.40;0.68;;;;;;;;;;5806238;28;19922;-73
2023/08/22 13:45:24;;;;;;;4.15;1.80;;;;;;;;;;5829959;28;20167;-73
2023/08/22 13:48:15;;;;;;;1.52;0.60;;;;;;;;;;5865261;28;20050;-72
2023/08/22 13:51:12;;;;;;;1.65;1.02;;;;;;;;;;5866796;28;20053;-72
2023/08/22 13:54:05;;;;;;;4.35;1.05;;;;;;;;;;5824848;28;20042;-72
2023/08/22 13:57:03;;;;;;;;;;;;;;;;;;5838497;28;20113;-73
2023/08/22 13:59:54;;;;;;;2.28;0.68;;;;;;;;;;5843707;28;20011;-73
2023/08/22 14:02:52;;;;;;;2.25;0.95;;;;;;;;;;5843405;28;20045;-73
2023/08/22 14:05:43;;;;;;;1.15;0.70;;;;;;;;;;5842816;28;20409;-73
2023/08/22 14:08:40;;;;;;;2.30;1.20;;;;;;;;;;5842141;28;20456;-73
2023/08/22 14:11:31;;;;;;;3.22;1.35;;;;;;;;;;5841183;28;20454;-73
2023/08/22 14:14:29;;;;;;;4.75;1.58;;;;;;;;;;5842781;28;20041;-72
2023/08/22 14:17:20;;;;;;;4.78;1.48;;;;;;;;;;5834898;28;20049;-74
2023/08/22 14:20:18;;;;;;;1.88;0.95;;;;;;;;;;5837127;28;20488;-73
2023/08/22 14:23:08;;;;;;;1.33;0.95;;;;;;;;;;5836586;28;20393;-73
2023/08/22 14:26:06;;;;;;;5.72;1.23;;;;;;;;;;5841427;28;20050;-74
2023/08/22 14:29:04;;;;;;;0.90;0.47;;;;;;;;;;5843242;28;20062;-74
2023/08/22 14:32:01;;;;;;;3.17;0.52;;;;;;;;;;5857980;28;20506;-73
2023/08/22 14:34:52;;;;;;;2.08;1.08;;;;;;;;;;5862919;28;20045;-73
2023/08/22 14:37:49;;;;;;;15.60;0.98;;;;;;;;;;5864584;28;20056;-73
2023/08/22 14:40:40;;;;;;;1.35;0.80;;;;;;;;;;5865488;28;20045;-73
2023/08/22 14:43:37;;;;;;;0.85;0.77;;;;;;;;;;5864297;28;20044;-74
2023/08/22 14:46:28;;;;;;;0.95;0.60;;;;;;;;;;5864853;28;20041;-73
2023/08/22 14:49:25;;;;;;;0.47;0.47;;;;;;;;;;5864935;28;20072;-72
2023/08/22 14:52:16;;;;;;;1.73;1.00;;;;;;;;;;5865242;28;20049;-74
2023/08/22 14:55:13;;;;;;;1.73;0.57;;;;;;;;;;5864007;28;20053;-73
2023/08/22 14:58:04;;;;;;;1.95;0.85;;;;;;;;;;5864927;28;20761;-73
2023/08/22 15:01:01;;;;;;;1.85;1.00;;;;;;;;;;5846623;28;20049;-74
2023/08/22 15:03:52;;;;;;;0.93;0.82;;;;;;;;;;5863513;28;20051;-72
2023/08/22 15:06:50;;;;;;;0.73;0.68;;;;;;;;;;5863552;28;20049;-72
2023/08/22 15:09:41;;;;;;;1.20;0.60;;;;;;;;;;5864355;28;20433;-74
2023/08/22 15:12:39;;;;;;;1.77;0.98;;;;;;;;;;5864217;28;20037;-72
2023/08/22 15:15:30;;;;;;;1.73;0.80;;;;;;;;;;5863494;28;20038;-73
2023/08/22 15:18:27;;;;;;;1.40;0.80;;;;;;;;;;5864800;28;20120;-73
2023/08/22 15:21:18;;;;;;;5.95;1.40;;;;;;;;;;5863732;28;20045;-73
2023/08/22 15:24:15;;;;;;;1.02;0.60;;;;;;;;;;5862305;28;20496;-73
2023/08/22 15:27:06;;;;;;;1.95;1.33;;;;;;;;;;5864879;28;20440;-73
2023/08/22 15:30:04;;;;;;;1.40;0.95;;;;;;;;;;5864215;28;20045;-72
2023/08/22 15:32:54;;;;;;;1.95;0.98;;;;;;;;;;5862251;28;20056;-73
2023/08/22 15:35:52;;;;;;;;;;;;;;;;;;5863315;28;20124;-72
2023/08/22 15:38:43;;;;;;;1.35;0.80;;;;;;;;;;5863245;28;19927;-74
2023/08/22 15:41:40;;;;;;;10.38;1.40;;;;;;;;;;5862925;28;20045;-73
2023/08/22 15:44:31;;;;;;;2.05;0.75;;;;;;;;;;5862189;28;20041;-72
2023/08/22 15:47:29;;;;;;;6.25;1.08;;;;;;;;;;5861923;28;20045;-74
2023/08/22 15:50:20;;;;;;;2.35;0.63;;;;;;;;;;5861937;28;20385;-74
2023/08/22 15:53:17;;;;;;;2.35;1.17;;;;;;;;;;5860167;28;20049;-73
2023/08/22 15:56:08;;;;;;;0.95;0.88;;;;;;;;;;5859979;28;20041;-74
2023/08/22 15:59:05;;;;;;;2.17;1.10;;;;;;;;;;5860462;28;20052;-73
2023/08/22 16:01:56;;;;;;;4.85;1.00;;;;;;;;;;5827928;28;20052;-75
2023/08/22 16:04:55;;;;;;;1.25;0.77;;;;;;;;;;5804850;28;20496;-74
2023/08/22 16:07:46;;;;;;;3.28;0.80;;;;;;;;;;5808221;28;20046;-73
2023/08/22 16:10:43;;;;;;;1.55;1.20;;;;;;;;;;5826944;28;20053;-75
2023/08/22 16:13:34;;;;;;;0.82;0.50;;;;;;;;;;5824099;28;20044;-73
2023/08/22 16:16:31;;;;;;;5.55;0.95;;;;;;;;;;5827806;28;20060;-73
2023/08/22 16:19:22;;;;;;;4.70;1.42;;;;;;;;;;5826584;28;20107;-74
2023/08/22 16:22:20;;;;;;;1.40;0.95;;;;;;;;;;5824651;28;20841;-74
2023/08/22 16:25:11;;;;;;;1.90;0.85;;;;;;;;;;5826404;28;20547;-74
2023/08/22 16:28:08;;;;;;;4.82;1.33;;;;;;;;;;5814135;28;20065;-75
2023/08/22 16:31:00;;;;;;;2.03;0.88;;;;;;;;;;5811162;28;20059;-75
2023/08/22 16:33:57;;;;;;;1.42;0.70;;;;;;;;;;5843518;28;20112;-74
2023/08/22 16:36:48;;;;;;;2.95;1.48;;;;;;;;;;5849850;28;20042;-74
2023/08/22 16:39:45;;;;;;;1.45;0.63;;;;;;;;;;5850742;28;20049;-75
2023/08/22 16:42:36;;;;;;;4.03;1.90;;;;;;;;;;5850455;28;20042;-76
2023/08/22 16:45:33;;;;;;;1.70;1.13;;;;;;;;;;5826988;28;20057;-75
2023/08/22 16:48:24;;;;;;;2.85;1.33;;;;;;;;;;5827960;28;20057;-75
2023/08/22 16:51:21;;;;;;;3.65;1.30;;;;;;;;;;5824161;28;20088;-75
2023/08/22 16:54:13;;;;;;;2.80;1.75;;;;;;;;;;5824935;28;20046;-74
2023/08/22 16:57:10;;;;;;;1.60;0.73;;;;;;;;;;5825663;28;20065;-75
2023/08/22 17:00:01;;;;;;;1.45;1.00;;;;;;;;;;5824907;28;20057;-75
2023/08/22 17:02:58;;;;;;;1.20;1.05;;;;;;;;;;5827021;28;20057;-75
2023/08/22 17:05:49;;;;;;;1.75;1.23;;;;;;;;;;5824922;28;20042;-75
2023/08/22 17:08:46;;;;;;;1.92;1.33;;;;;;;;;;5817775;28;20047;-75
2023/08/22 17:11:37;;;;;;;2.05;0.93;;;;;;;;;;5816234;28;20045;-76
2023/08/22 17:14:34;;;;;;;4.40;1.50;;;;;;;;;;5826999;28;20698;-75
2023/08/22 17:17:26;;;;;;;12.15;1.38;;;;;;;;;;5826613;28;20069;-76
2023/08/22 17:20:25;;;;;;;19.08;1.30;;;;;;;;;;5825743;28;20046;-75
2023/08/22 17:23:16;;;;;;;1.48;1.17;;;;;;;;;;5837701;28;20042;-75
2023/08/22 17:26:15;;;;;;;2.30;0.93;;;;;;;;;;5838946;28;20045;-76
2023/08/22 17:29:06;;;;;;;1.95;1.20;;;;;;;;;;5839603;28;20054;-76
2023/08/22 17:32:03;;;;;;;2.00;1.33;;;;;;;;;;5837484;28;20042;-75
2023/08/22 17:34:59;;;;;;;21.95;1.65;;;;;;;;;;5840754;28;20488;-75
2023/08/22 17:37:56;;;;;;;1.15;1.05;;;;;;;;;;5837137;28;20042;-75
2023/08/22 17:40:47;;;;;;;4.80;1.83;;;;;;;;;;5839224;28;20045;-76
2023/08/22 17:43:44;;;;;;;6.03;1.70;;;;;;;;;;5840597;28;20048;-76
2023/08/22 17:46:35;;;;;;;1.95;1.10;;;;;;;;;;5842666;28;20474;-76
2023/08/22 17:49:32;;;;;;;3.77;2.37;;;;;;;;;;5838269;28;20048;-74
2023/08/22 17:52:24;;;;;;;5.55;2.05;;;;;;;;;;5841815;28;20046;-75
2023/08/22 17:55:21;;;;;;;1.55;1.10;;;;;;;;;;5842753;28;20783;-74
2023/08/22 17:58:12;;;;;;;3.65;1.40;;;;;;;;;;5837042;28;20042;-75
2023/08/22 18:01:09;;;;;;;3.70;2.27;;;;;;;;;;5840210;28;20058;-75
2023/08/22 18:04:01;;;;;;;4.43;2.03;;;;;;;;;;5842692;28;20042;-75
2023/08/22 18:06:58;;;;;;;2.22;1.58;;;;;;;;;;5855665;28;20042;-76
2023/08/22 18:09:49;;;;;;;17.17;2.08;;;;;;;;;;5863193;28;20052;-75